Time;durP1;ratioP1;P1;durP2;ratioP2;P2;SDS_P1;SDS_P2;PMS_P1;PMS_P2;Temp;Humidity;BMP_temperature;BMP_pressure;BME280_temperature;BME280_humidity;BME280_pressure;Samples;Min_cycle;Max_cycle;Signal;HPM_P1;HPM_P2
2020/12/05 00:01:27;;;;;;;19.70;11.73;;;3.50;99.90;;;;;;5072175;28;20070;-78
2020/12/05 00:03:53;;;;;;;17.13;9.63;;;3.50;99.90;;;;;;5073413;28;20044;-78
2020/12/05 00:06:25;;;;;;;19.67;11.20;;;3.50;99.90;;;;;;5073393;28;20067;-77
2020/12/05 00:08:51;;;;;;;18.30;9.82;;;3.50;99.90;;;;;;5073957;28;20024;-77
2020/12/05 00:11:25;;;;;;;18.73;11.30;;;3.60;99.90;;;;;;5073402;28;20043;-78
2020/12/05 00:13:50;;;;;;;14.65;9.70;;;3.50;99.90;;;;;;5088934;28;20047;-78
2020/12/05 00:16:16;;;;;;;19.13;10.10;;;3.30;99.90;;;;;;5071753;28;20128;-77
2020/12/05 00:18:42;;;;;;;17.05;10.40;;;3.40;99.90;;;;;;5072069;28;20020;-77
2020/12/05 00:21:07;;;;;;;15.63;10.10;;;3.40;99.90;;;;;;5088773;28;20024;-77
2020/12/05 00:23:33;;;;;;;15.60;10.50;;;3.30;99.90;;;;;;5071936;28;20025;-77
2020/12/05 00:25:59;;;;;;;16.52;10.23;;;3.30;99.90;;;;;;5073418;28;20020;-77
2020/12/05 00:28:24;;;;;;;20.05;11.10;;;3.20;99.90;;;;;;5073121;28;20051;-77
2020/12/05 00:30:50;;;;;;;18.38;10.52;;;3.20;99.90;;;;;;5073107;28;20028;-77
2020/12/05 00:33:15;;;;;;;17.80;10.77;;;3.30;99.90;;;;;;5073134;28;20025;-77
2020/12/05 00:35:41;;;;;;;16.75;10.63;;;3.40;99.90;;;;;;5071751;28;20035;-78
2020/12/05 00:38:07;;;;;;;17.42;11.13;;;3.50;99.90;;;;;;5071816;28;20158;-78
2020/12/05 00:40:33;;;;;;;18.25;11.13;;;3.50;99.90;;;;;;5071839;28;20103;-78
2020/12/05 00:42:58;;;;;;;19.88;11.50;;;3.40;99.90;;;;;;5072992;28;20107;-78
2020/12/05 00:45:24;;;;;;;21.35;11.27;;;3.40;99.90;;;;;;5072969;28;20024;-78
2020/12/05 00:47:50;;;;;;;15.57;10.15;;;3.40;99.90;;;;;;5072893;28;20017;-78
2020/12/05 00:50:16;;;;;;;16.85;10.45;;;3.40;99.90;;;;;;5072915;28;20027;-78
2020/12/05 00:52:42;;;;;;;20.75;12.68;;;3.40;99.90;;;;;;5073223;28;20036;-78
2020/12/05 00:55:07;;;;;;;19.65;11.90;;;3.40;99.90;;;;;;5072882;28;20024;-78
2020/12/05 00:57:33;;;;;;;24.40;13.18;;;3.30;99.90;;;;;;5074121;28;20029;-78
2020/12/05 00:59:59;;;;;;;15.30;10.02;;;3.20;99.90;;;;;;5076786;28;20012;-78
2020/12/05 01:02:26;;;;;;;24.13;14.98;;;3.30;99.90;;;;;;5076074;28;20495;-77
2020/12/05 01:04:52;;;;;;;21.77;12.30;;;3.20;99.90;;;;;;5076764;28;20050;-78
2020/12/05 01:07:27;;;;;;;16.13;10.98;;;3.10;99.90;;;;;;5075152;28;20025;-78
2020/12/05 01:09:55;;;;;;;21.75;11.20;;;3.10;99.90;;;;;;5076586;28;20060;-78
2020/12/05 01:12:24;;;;;;;19.45;13.07;;;3.10;99.90;;;;;;5076337;28;20115;-77
2020/12/05 01:14:50;;;;;;;18.45;12.00;;;3.20;99.90;;;;;;5091735;28;20389;-78
2020/12/05 01:17:15;;;;;;;19.10;10.88;;;3.40;99.90;;;;;;5076472;28;20468;-77
2020/12/05 01:19:41;;;;;;;17.38;10.95;;;3.40;99.90;;;;;;5076152;28;20032;-77
2020/12/05 01:22:07;;;;;;;19.58;12.60;;;3.30;99.90;;;;;;5076151;28;20070;-77
2020/12/05 01:24:33;;;;;;;17.63;11.77;;;3.30;99.90;;;;;;5074793;28;20074;-77
2020/12/05 01:26:58;;;;;;;18.50;12.23;;;3.30;99.90;;;;;;5074844;28;20106;-78
2020/12/05 01:29:24;;;;;;;18.75;11.18;;;3.20;99.90;;;;;;5074720;28;20498;-78
2020/12/05 01:31:49;;;;;;;19.45;13.20;;;3.10;99.90;;;;;;5074702;28;20098;-78
2020/12/05 01:34:15;;;;;;;21.15;13.73;;;3.00;99.90;;;;;;5075887;28;20404;-77
2020/12/05 01:36:45;;;;;;;17.30;11.55;;;2.90;99.90;;;;;;5074562;28;20499;-78
2020/12/05 01:39:11;;;;;;;20.83;12.40;;;2.80;99.90;;;;;;5075823;28;20476;-78
2020/12/05 01:41:37;;;;;;;17.83;11.88;;;2.80;99.90;;;;;;5074515;28;20086;-78
2020/12/05 01:44:03;;;;;;;18.83;13.10;;;2.90;99.90;;;;;;5075807;28;20472;-78
2020/12/05 01:46:40;;;;;;;18.02;12.02;;;2.80;99.90;;;;;;5074369;28;20028;-78
2020/12/05 01:49:12;;;;;;;19.23;12.20;;;2.90;99.90;;;;;;5074445;28;20028;-78
2020/12/05 01:51:38;;;;;;;15.82;10.88;;;3.00;99.90;;;;;;5075963;28;20024;-78
2020/12/05 01:54:05;;;;;;;14.77;9.85;;;3.00;99.90;;;;;;5075619;28;20095;-78
2020/12/05 01:56:31;;;;;;;16.25;11.52;;;3.00;99.90;;;;;;5075489;28;20081;-78
2020/12/05 01:58:57;;;;;;;17.83;13.35;;;3.00;99.90;;;;;;5075475;28;20384;-78
2020/12/05 02:01:25;;;;;;;15.30;11.32;;;2.80;99.90;;;;;;5075415;28;20025;-78
2020/12/05 02:04:02;;;;;;;15.52;11.10;;;2.60;99.90;;;;;;5074110;28;20021;-78
2020/12/05 02:06:45;;;;;;;18.63;11.90;;;2.60;99.90;;;;;;5075661;28;20048;-78
2020/12/05 02:09:32;;;;;;;10.55;7.20;;;2.70;99.90;;;;;;5074451;28;20029;-78
2020/12/05 02:12:12;;;;;;;14.35;11.00;;;2.60;99.90;;;;;;5073747;28;20369;-79
2020/12/05 02:14:39;;;;;;;16.25;10.82;;;2.70;99.90;;;;;;5090617;28;20040;-79
2020/12/05 02:17:06;;;;;;;15.65;10.85;;;2.80;99.90;;;;;;5075322;28;20021;-79
2020/12/05 02:19:50;;;;;;;15.77;10.50;;;2.80;99.90;;;;;;5090633;28;20391;-79
2020/12/05 02:22:22;;;;;;;14.15;10.00;;;2.90;99.90;;;;;;5090576;28;20044;-80
2020/12/05 02:24:49;;;;;;;15.95;9.85;;;2.90;99.90;;;;;;5075019;28;20032;-80
2020/12/05 02:27:16;;;;;;;16.48;11.13;;;2.90;99.90;;;;;;5073600;28;20024;-81
2020/12/05 02:29:41;;;;;;;15.02;10.77;;;2.90;99.90;;;;;;5090491;28;20035;-81
2020/12/05 02:32:07;;;;;;;14.48;8.90;;;2.80;99.90;;;;;;5073510;28;20020;-81
2020/12/05 02:34:35;;;;;;;14.48;10.10;;;2.70;99.90;;;;;;5073453;28;20476;-81
2020/12/05 02:37:12;;;;;;;16.42;11.25;;;2.80;99.90;;;;;;5074674;28;20158;-81
2020/12/05 02:39:45;;;;;;;17.58;11.27;;;2.90;99.90;;;;;;5074721;28;20484;-82
2020/12/05 02:42:14;;;;;;;14.68;10.38;;;2.90;99.90;;;;;;5090257;28;20025;-82
2020/12/05 02:44:51;;;;;;;13.75;8.70;;;2.90;99.90;;;;;;5090174;28;20016;-82
2020/12/05 02:47:18;;;;;;;14.60;10.20;;;2.80;99.90;;;;;;5090088;28;20025;-82
2020/12/05 02:49:45;;;;;;;14.23;10.05;;;2.90;99.90;;;;;;5074454;28;20126;-82
2020/12/05 02:52:11;;;;;;;14.32;9.52;;;2.90;99.90;;;;;;5074433;28;20025;-82
2020/12/05 02:54:36;;;;;;;16.13;9.32;;;2.90;99.90;;;;;;5090047;28;20035;-81
2020/12/05 02:57:03;;;;;;;12.80;9.30;;;3.00;99.90;;;;;;5089774;28;20055;-80
2020/12/05 02:59:29;;;;;;;13.57;10.13;;;3.00;99.90;;;;;;5089878;28;20031;-80
2020/12/05 03:01:56;;;;;;;13.88;9.95;;;2.90;99.90;;;;;;5089816;28;20051;-80
2020/12/05 03:04:22;;;;;;;11.55;8.40;;;2.80;99.90;;;;;;5072952;28;20496;-80
2020/12/05 03:06:48;;;;;;;11.70;9.35;;;2.80;99.90;;;;;;5072831;28;20060;-80
2020/12/05 03:09:14;;;;;;;15.23;11.35;;;2.70;99.90;;;;;;5089720;28;20024;-80
2020/12/05 03:11:39;;;;;;;11.50;8.13;;;2.70;99.90;;;;;;5072736;28;20020;-80
2020/12/05 03:14:06;;;;;;;11.45;8.40;;;2.70;99.90;;;;;;5072731;28;20382;-79
2020/12/05 03:16:32;;;;;;;12.55;8.25;;;2.70;99.90;;;;;;5073693;28;20076;-80
2020/12/05 03:18:57;;;;;;;10.23;7.50;;;2.80;99.90;;;;;;5072635;28;20052;-79
2020/12/05 03:21:23;;;;;;;14.35;9.20;;;2.90;99.90;;;;;;5072213;28;20047;-80
2020/12/05 03:23:49;;;;;;;10.65;7.90;;;2.90;99.90;;;;;;5073802;28;20024;-80
2020/12/05 03:26:15;;;;;;;11.60;7.90;;;2.90;99.90;;;;;;5072536;28;20025;-80
2020/12/05 03:28:42;;;;;;;11.73;8.80;;;3.10;99.90;;;;;;5072518;28;20028;-79
2020/12/05 03:31:12;;;;;;;10.48;7.72;;;3.10;99.90;;;;;;5072475;28;20050;-79
2020/12/05 03:33:40;;;;;;;10.90;8.00;;;3.10;99.90;;;;;;5089357;28;20024;-80
2020/12/05 03:36:06;;;;;;;10.90;7.97;;;3.00;99.90;;;;;;5074199;28;20128;-79
2020/12/05 03:38:31;;;;;;;10.63;7.85;;;3.10;99.90;;;;;;5072396;28;20064;-80
2020/12/05 03:40:57;;;;;;;10.05;7.75;;;3.00;99.90;;;;;;5073594;28;20051;-80
2020/12/05 03:43:23;;;;;;;10.85;7.97;;;3.10;99.90;;;;;;5072276;28;20027;-79
2020/12/05 03:45:48;;;;;;;10.95;7.70;;;3.20;99.90;;;;;;5073535;28;20036;-79
2020/12/05 03:48:14;;;;;;;12.02;8.18;;;3.20;99.90;;;;;;5072278;28;20028;-79
2020/12/05 03:50:40;;;;;;;11.68;8.23;;;3.10;99.90;;;;;;5072266;28;20029;-79
2020/12/05 03:53:06;;;;;;;9.77;7.85;;;3.00;99.90;;;;;;5089070;28;20078;-79
2020/12/05 03:55:31;;;;;;;12.35;8.45;;;2.90;99.90;;;;;;5072190;28;20029;-80
2020/12/05 03:58:01;;;;;;;18.27;10.32;;;2.90;99.90;;;;;;5072191;28;20023;-80
2020/12/05 04:00:27;;;;;;;24.48;11.57;;;2.90;99.90;;;;;;5072144;28;20073;-80
2020/12/05 04:02:53;;;;;;;17.10;9.55;;;2.90;99.90;;;;;;5073697;28;20039;-79
2020/12/05 04:05:18;;;;;;;11.13;7.72;;;2.80;99.90;;;;;;5072121;28;20024;-80
2020/12/05 04:07:44;;;;;;;11.82;9.35;;;2.80;99.90;;;;;;5073368;28;20044;-79
2020/12/05 04:10:10;;;;;;;13.02;8.18;;;2.70;99.90;;;;;;5088900;28;20070;-79
2020/12/05 04:12:36;;;;;;;9.70;6.75;;;2.70;99.90;;;;;;5073605;28;20406;-79
2020/12/05 04:15:02;;;;;;;8.95;6.88;;;2.80;99.90;;;;;;5073120;28;20052;-80
2020/12/05 04:17:28;;;;;;;7.53;5.45;;;2.80;99.90;;;;;;5073206;28;20472;-79
2020/12/05 04:19:53;;;;;;;6.20;4.78;;;2.90;99.90;;;;;;5073266;28;20023;-79
2020/12/05 04:22:19;;;;;;;8.82;5.25;;;2.90;99.90;;;;;;5088756;28;20020;-79
2020/12/05 04:24:45;;;;;;;8.60;4.40;;;2.90;99.90;;;;;;5073506;28;20070;-79
2020/12/05 04:27:10;;;;;;;6.72;5.05;;;2.90;99.90;;;;;;5073159;28;20100;-79
2020/12/05 04:29:36;;;;;;;8.95;4.93;;;2.90;99.90;;;;;;5073176;28;20075;-80
2020/12/05 04:32:02;;;;;;;7.30;4.85;;;3.00;99.90;;;;;;5072363;28;20036;-80
2020/12/05 04:34:27;;;;;;;4.95;4.25;;;3.00;99.90;;;;;;5075815;28;20025;-79
2020/12/05 04:36:53;;;;;;;8.18;4.63;;;2.90;99.90;;;;;;5075682;28;20025;-80
2020/12/05 04:39:19;;;;;;;7.00;4.90;;;2.80;99.90;;;;;;5075713;28;20017;-79
2020/12/05 04:41:44;;;;;;;7.57;5.25;;;2.80;99.90;;;;;;5076913;28;20024;-79
2020/12/05 04:44:10;;;;;;;8.93;6.60;;;2.80;99.90;;;;;;5075583;28;20089;-79
2020/12/05 04:46:36;;;;;;;10.90;7.60;;;2.70;99.90;;;;;;5076682;28;20112;-79
2020/12/05 04:49:04;;;;;;;11.15;7.43;;;2.70;99.90;;;;;;5076788;28;20446;-79
2020/12/05 04:51:36;;;;;;;10.85;7.32;;;2.60;99.90;;;;;;5092346;28;20124;-79
2020/12/05 04:54:06;;;;;;;11.73;7.68;;;2.60;99.90;;;;;;5092362;28;20032;-79
2020/12/05 04:56:39;;;;;;;8.30;6.10;;;2.60;99.90;;;;;;5092156;28;20024;-79
2020/12/05 04:59:07;;;;;;;7.28;5.78;;;2.80;99.90;;;;;;5075332;28;20073;-79
2020/12/05 05:01:37;;;;;;;8.18;6.20;;;2.90;99.90;;;;;;5076471;28;20380;-79
2020/12/05 05:04:05;;;;;;;7.95;6.03;;;2.90;99.90;;;;;;5092140;28;20108;-78
2020/12/05 05:06:31;;;;;;;8.32;5.72;;;2.80;99.90;;;;;;5092147;28;20415;-78
2020/12/05 05:08:57;;;;;;;10.95;7.25;;;2.80;99.90;;;;;;5092053;28;20028;-78
2020/12/05 05:11:25;;;;;;;9.13;7.25;;;2.70;99.90;;;;;;5075086;28;20025;-78
2020/12/05 05:14:02;;;;;;;8.40;6.55;;;2.70;99.90;;;;;;5075027;28;20205;-78
2020/12/05 05:16:29;;;;;;;8.52;6.15;;;2.70;99.90;;;;;;5076090;28;20051;-78
2020/12/05 05:18:56;;;;;;;8.52;6.50;;;2.60;99.90;;;;;;5074906;28;20025;-77
2020/12/05 05:21:39;;;;;;;9.00;5.75;;;2.60;99.90;;;;;;5091801;28;20021;-78
2020/12/05 05:24:16;;;;;;;9.80;6.63;;;2.50;99.90;;;;;;5091842;28;20027;-78
2020/12/05 05:26:59;;;;;;;7.57;6.25;;;2.50;99.90;;;;;;5091752;28;20078;-77
2020/12/05 05:29:27;;;;;;;10.05;6.70;;;2.50;99.90;;;;;;5076337;28;20024;-78
2020/12/05 05:34:26;;;;;;;7.95;6.25;;;2.60;99.90;;;;;;5076314;28;20115;-78
2020/12/05 05:36:52;;;;;;;6.93;5.25;;;2.60;99.90;;;;;;5074596;28;20449;-77
2020/12/05 05:39:19;;;;;;;6.07;5.00;;;2.60;99.90;;;;;;5074602;28;20025;-77
2020/12/05 05:41:53;;;;;;;8.10;5.50;;;2.60;99.90;;;;;;5074604;28;20021;-78
2020/12/05 05:44:24;;;;;;;6.00;5.07;;;2.60;99.90;;;;;;5091086;28;20021;-78
2020/12/05 05:46:50;;;;;;;5.03;4.47;;;2.70;99.90;;;;;;5074428;28;20024;-77
2020/12/05 05:49:30;;;;;;;6.07;4.68;;;2.80;99.90;;;;;;5075724;28;20035;-78
2020/12/05 05:51:57;;;;;;;6.47;4.40;;;2.80;99.90;;;;;;5091249;28;20130;-78
2020/12/05 05:54:27;;;;;;;7.53;4.80;;;2.90;99.90;;;;;;5091207;28;20107;-78
2020/12/05 05:57:06;;;;;;;5.80;4.65;;;2.90;99.90;;;;;;5075534;28;20023;-78
2020/12/05 05:59:37;;;;;;;4.93;4.20;;;2.90;99.90;;;;;;5091090;28;20016;-78
2020/12/05 06:02:06;;;;;;;7.43;5.18;;;2.90;99.90;;;;;;5075995;28;20468;-78
2020/12/05 06:04:37;;;;;;;6.60;4.53;;;2.90;99.90;;;;;;5075394;28;20028;-78
2020/12/05 06:07:05;;;;;;;5.78;4.57;;;2.80;99.90;;;;;;5091002;28;20452;-78
2020/12/05 06:09:48;;;;;;;11.07;8.55;;;2.70;99.90;;;;;;5090911;28;20025;-78
2020/12/05 06:12:19;;;;;;;5.30;4.32;;;2.60;99.90;;;;;;5073994;28;20483;-78
2020/12/05 06:14:45;;;;;;;5.05;3.88;;;2.70;99.90;;;;;;5075024;28;20044;-78
2020/12/05 06:17:11;;;;;;;6.35;4.88;;;2.80;99.90;;;;;;5075110;28;20056;-78
2020/12/05 06:19:40;;;;;;;5.35;4.47;;;2.80;99.90;;;;;;5075140;28;20021;-78
2020/12/05 06:22:18;;;;;;;8.18;4.40;;;2.80;99.90;;;;;;5075032;28;20024;-79
2020/12/05 06:24:55;;;;;;;6.65;4.88;;;2.80;99.90;;;;;;5090611;28;20070;-79
2020/12/05 06:27:22;;;;;;;8.75;5.93;;;2.80;99.90;;;;;;5073743;28;20029;-79
2020/12/05 06:29:48;;;;;;;5.20;4.22;;;2.80;99.90;;;;;;5090452;28;20020;-78
2020/12/05 06:32:37;;;;;;;4.38;3.92;;;2.70;99.90;;;;;;5074793;28;20466;-78
2020/12/05 06:35:04;;;;;;;6.78;4.05;;;2.60;99.90;;;;;;5074810;28;20151;-78
2020/12/05 06:37:34;;;;;;;6.90;5.05;;;2.70;99.90;;;;;;5074889;28;20027;-79
2020/12/05 06:40:03;;;;;;;4.80;4.30;;;2.70;99.90;;;;;;5090219;28;20032;-78
2020/12/05 06:42:41;;;;;;;4.68;3.97;;;2.60;99.90;;;;;;5074899;28;20020;-79
2020/12/05 06:45:07;;;;;;;5.15;3.88;;;2.60;99.90;;;;;;5073385;28;20043;-79
2020/12/05 06:47:33;;;;;;;4.60;3.70;;;2.70;99.90;;;;;;5090110;28;20452;-78
2020/12/05 06:49:59;;;;;;;4.97;3.88;;;2.60;99.90;;;;;;5074438;28;20020;-78
2020/12/05 06:52:25;;;;;;;5.78;4.38;;;2.70;99.90;;;;;;5074432;28;20031;-78
2020/12/05 06:54:53;;;;;;;4.18;3.78;;;2.70;99.90;;;;;;5073068;28;20349;-78
2020/12/05 06:57:26;;;;;;;4.72;3.17;;;2.70;99.90;;;;;;5072936;28;20032;-78
2020/12/05 07:00:10;;;;;;;6.20;3.42;;;2.50;99.90;;;;;;5090042;28;20025;-78
2020/12/05 07:02:36;;;;;;;4.72;3.13;;;2.50;99.90;;;;;;5073012;28;20472;-78
2020/12/05 07:05:16;;;;;;;4.53;3.90;;;2.40;99.90;;;;;;5074145;28;20149;-78
2020/12/05 07:07:46;;;;;;;5.43;4.43;;;2.40;99.90;;;;;;5072773;28;20048;-78
2020/12/05 07:10:12;;;;;;;5.88;4.60;;;2.30;99.90;;;;;;5074077;28;20032;-78
2020/12/05 07:12:38;;;;;;;5.90;4.25;;;2.30;99.90;;;;;;5074230;28;20054;-79
2020/12/05 07:15:25;;;;;;;5.55;4.38;;;2.30;99.90;;;;;;5089608;28;20059;-78
2020/12/05 07:17:56;;;;;;;5.65;4.25;;;2.30;99.90;;;;;;5089558;28;20056;-78
2020/12/05 07:20:22;;;;;;;5.50;4.00;;;2.30;99.90;;;;;;5089618;28;20479;-79
2020/12/05 07:22:53;;;;;;;4.60;3.75;;;2.30;99.90;;;;;;5072577;28;20025;-79
2020/12/05 07:25:20;;;;;;;7.40;5.13;;;2.30;99.90;;;;;;5072734;28;20388;-78
2020/12/05 07:27:46;;;;;;;6.88;4.00;;;2.50;99.90;;;;;;5072875;28;20051;-78
2020/12/05 07:30:13;;;;;;;6.57;4.38;;;2.60;99.90;;;;;;5089351;28;20030;-77
2020/12/05 07:32:41;;;;;;;5.13;3.92;;;2.70;99.90;;;;;;5072499;28;20033;-78
2020/12/05 07:35:13;;;;;;;5.22;3.25;;;2.80;99.90;;;;;;5072475;28;20025;-78
2020/12/05 07:37:39;;;;;;;2.95;2.45;;;2.90;99.90;;;;;;5073649;28;20074;-78
2020/12/05 07:40:09;;;;;;;3.63;2.85;;;2.90;99.90;;;;;;5072405;28;20020;-77
2020/12/05 07:42:36;;;;;;;3.30;2.67;;;2.90;99.90;;;;;;5089217;28;20021;-78
2020/12/05 07:45:08;;;;;;;4.72;3.20;;;2.90;99.90;;;;;;5073917;28;20029;-78
2020/12/05 07:47:33;;;;;;;4.05;3.28;;;2.90;99.90;;;;;;5089131;28;20025;-78
2020/12/05 07:50:01;;;;;;;5.07;2.72;;;2.90;99.90;;;;;;5072264;28;20116;-77
2020/12/05 07:52:26;;;;;;;4.20;3.38;;;2.80;99.90;;;;;;5073576;28;20040;-78
2020/12/05 07:54:56;;;;;;;4.45;3.15;;;2.70;99.90;;;;;;5073493;28;20040;-78
2020/12/05 07:57:30;;;;;;;3.67;2.90;;;2.70;99.90;;;;;;5088980;28;20082;-78
2020/12/05 08:00:13;;;;;;;6.35;3.58;;;2.60;99.90;;;;;;5089110;28;20024;-78
2020/12/05 08:02:47;;;;;;;9.57;5.55;;;2.60;99.90;;;;;;5072227;28;20024;-77
2020/12/05 08:05:30;;;;;;;11.18;6.07;;;2.60;99.90;;;;;;5072159;28;20056;-78
2020/12/05 08:08:02;;;;;;;5.03;3.20;;;2.70;99.90;;;;;;5076519;28;20029;-78
2020/12/05 08:10:33;;;;;;;8.68;4.78;;;2.80;99.90;;;;;;5093198;28;20387;-77
2020/12/05 08:13:17;;;;;;;10.25;5.85;;;2.80;99.90;;;;;;5077760;28;20414;-77
2020/12/05 08:15:44;;;;;;;10.30;5.47;;;2.80;99.90;;;;;;5077078;28;20488;-77
2020/12/05 08:18:11;;;;;;;10.57;7.25;;;2.60;99.90;;;;;;5076154;28;20029;-77
2020/12/05 08:20:44;;;;;;;12.48;6.90;;;2.70;99.90;;;;;;5077292;28;20028;-77
2020/12/05 08:23:24;;;;;;;9.07;5.05;;;2.60;99.90;;;;;;5077331;28;20070;-76
2020/12/05 08:25:53;;;;;;;8.73;3.88;;;2.70;99.90;;;;;;5077239;28;20037;-78
2020/12/05 08:28:20;;;;;;;4.78;2.95;;;2.90;99.90;;;;;;5077179;28;20053;-77
2020/12/05 08:30:48;;;;;;;5.78;3.40;;;3.00;99.90;;;;;;5092868;28;20048;-78
2020/12/05 08:33:14;;;;;;;6.95;3.58;;;3.00;99.90;;;;;;5077165;28;20025;-78
2020/12/05 08:35:40;;;;;;;6.07;4.03;;;3.10;99.90;;;;;;5077018;28;20056;-77
2020/12/05 08:38:09;;;;;;;6.63;4.35;;;3.10;99.90;;;;;;5075724;28;20075;-77
2020/12/05 08:40:35;;;;;;;6.50;4.25;;;3.10;99.90;;;;;;5076995;28;20429;-78
2020/12/05 08:43:02;;;;;;;5.85;3.72;;;3.20;99.90;;;;;;5076861;28;20052;-78
2020/12/05 08:45:28;;;;;;;12.93;4.82;;;3.20;99.90;;;;;;5092462;28;20472;-78
2020/12/05 08:47:54;;;;;;;55.72;19.83;;;3.20;99.90;;;;;;5075661;28;20025;-78
2020/12/05 08:50:28;;;;;;;13.50;5.10;;;3.20;99.90;;;;;;5077091;28;20017;-78
2020/12/05 08:52:57;;;;;;;13.27;5.60;;;3.30;99.90;;;;;;5075432;28;20024;-78
2020/12/05 08:55:25;;;;;;;7.88;4.93;;;3.20;99.90;;;;;;5076661;28;20491;-78
2020/12/05 08:57:59;;;;;;;9.45;5.50;;;3.20;99.90;;;;;;5092227;28;20380;-78
2020/12/05 09:00:26;;;;;;;10.57;6.38;;;3.40;99.90;;;;;;5076591;28;20486;-78
2020/12/05 09:02:52;;;;;;;10.15;5.72;;;3.40;99.90;;;;;;5076804;28;20025;-78
2020/12/05 09:05:18;;;;;;;14.35;5.90;;;3.30;99.90;;;;;;5092231;28;20131;-78
2020/12/05 09:07:54;;;;;;;15.98;9.68;;;3.20;99.90;;;;;;5075170;28;20111;-78
2020/12/05 09:10:20;;;;;;;12.40;8.98;;;3.00;99.90;;;;;;5091935;28;20028;-78
2020/12/05 09:12:46;;;;;;;15.93;8.85;;;3.00;99.90;;;;;;5075030;28;20029;-79
2020/12/05 09:15:12;;;;;;;16.73;12.05;;;3.10;99.90;;;;;;5076179;28;20048;-78
2020/12/05 09:17:37;;;;;;;9.10;6.97;;;3.10;99.90;;;;;;5091593;28;20032;-78
2020/12/05 09:20:19;;;;;;;9.30;5.60;;;3.00;99.90;;;;;;5076142;28;20074;-78
2020/12/05 09:22:57;;;;;;;10.73;5.30;;;2.90;99.90;;;;;;5076132;28;20020;-78
2020/12/05 09:25:35;;;;;;;8.43;4.90;;;2.80;99.90;;;;;;5074907;28;20545;-78
2020/12/05 09:28:07;;;;;;;6.32;4.68;;;2.90;99.90;;;;;;5092566;28;20031;-78
2020/12/05 09:30:32;;;;;;;8.25;4.63;;;2.90;99.90;;;;;;5091731;28;20051;-78
2020/12/05 09:32:58;;;;;;;8.13;4.90;;;3.10;99.90;;;;;;5074697;28;20414;-78
2020/12/05 09:35:27;;;;;;;15.10;5.20;;;3.00;99.90;;;;;;5075922;28;20020;-77
2020/12/05 09:37:53;;;;;;;11.57;6.15;;;3.10;99.90;;;;;;5074412;28;20043;-78
2020/12/05 09:40:21;;;;;;;14.65;8.63;;;3.10;99.90;;;;;;5075968;28;20376;-78
2020/12/05 09:42:47;;;;;;;13.73;7.05;;;3.20;99.90;;;;;;5091410;28;20430;-78
2020/12/05 09:45:14;;;;;;;14.10;7.97;;;3.30;99.90;;;;;;5074536;28;20044;-78
2020/12/05 09:47:41;;;;;;;15.35;7.15;;;3.30;99.90;;;;;;5075625;28;20419;-78
2020/12/05 09:50:08;;;;;;;8.57;5.10;;;3.10;99.90;;;;;;5075677;28;20376;-78
2020/12/05 09:52:33;;;;;;;6.70;4.38;;;3.20;99.90;;;;;;5074366;28;20459;-78
2020/12/05 09:54:59;;;;;;;9.50;4.95;;;3.20;99.90;;;;;;5075839;28;20032;-78
2020/12/05 09:57:25;;;;;;;8.68;5.53;;;3.30;99.90;;;;;;5074181;28;20028;-78
2020/12/05 09:59:51;;;;;;;11.18;7.03;;;3.30;99.90;;;;;;5074273;28;20384;-79
2020/12/05 10:02:17;;;;;;;9.65;5.72;;;3.40;99.90;;;;;;5075499;28;20020;-79
2020/12/05 10:04:42;;;;;;;7.13;4.90;;;3.50;99.90;;;;;;5074067;28;20021;-79
2020/12/05 10:07:08;;;;;;;7.05;4.65;;;3.50;99.90;;;;;;5075363;28;20139;-79
2020/12/05 10:09:35;;;;;;;4.95;3.58;;;3.40;99.90;;;;;;5073986;28;20499;-79
2020/12/05 10:12:01;;;;;;;7.15;3.92;;;3.50;99.90;;;;;;5075306;28;20032;-79
2020/12/05 10:14:26;;;;;;;7.53;4.05;;;3.40;99.90;;;;;;5075039;28;20078;-79
2020/12/05 10:16:52;;;;;;;5.63;4.30;;;3.30;99.90;;;;;;5073853;28;20020;-79
2020/12/05 10:19:18;;;;;;;9.18;5.95;;;3.20;99.90;;;;;;5075115;28;20112;-79
2020/12/05 10:21:51;;;;;;;7.40;5.20;;;3.30;99.90;;;;;;5075071;28;20020;-78
2020/12/05 10:24:18;;;;;;;68.32;44.75;;;3.20;99.90;;;;;;5075066;28;20080;-78
2020/12/05 10:27:02;;;;;;;27.75;18.17;;;3.20;99.90;;;;;;5090472;28;20025;-78
2020/12/05 10:29:27;;;;;;;8.65;5.28;;;3.20;99.90;;;;;;5073142;28;20032;-78
2020/12/05 10:31:54;;;;;;;11.77;5.80;;;3.20;99.90;;;;;;5074210;28;20086;-78
2020/12/05 10:34:21;;;;;;;17.98;9.63;;;3.40;99.90;;;;;;5074755;28;20526;-78
2020/12/05 10:36:47;;;;;;;17.95;9.05;;;3.50;99.90;;;;;;5090288;28;20029;-77
2020/12/05 10:39:13;;;;;;;13.95;7.95;;;3.40;99.90;;;;;;5074693;28;20107;-77
2020/12/05 10:41:40;;;;;;;9.90;6.13;;;3.30;99.90;;;;;;5074574;28;20024;-77
2020/12/05 10:44:07;;;;;;;12.45;6.18;;;3.30;99.90;;;;;;5073254;28;20020;-78
2020/12/05 10:46:38;;;;;;;11.27;6.97;;;3.20;99.90;;;;;;5074428;28;20392;-77
2020/12/05 10:49:04;;;;;;;12.02;6.10;;;3.20;99.90;;;;;;5074511;28;20380;-78
2020/12/05 10:51:29;;;;;;;14.13;7.75;;;3.20;99.90;;;;;;5090039;28;20024;-78
2020/12/05 10:53:55;;;;;;;15.55;8.57;;;3.20;99.90;;;;;;5074855;28;20084;-77
2020/12/05 10:56:24;;;;;;;16.83;10.10;;;3.20;99.90;;;;;;5074238;28;20025;-78
2020/12/05 10:58:50;;;;;;;22.50;12.15;;;3.20;99.90;;;;;;5089903;28;20021;-78
2020/12/05 11:01:16;;;;;;;13.10;8.43;;;3.20;99.90;;;;;;5074253;28;20025;-79
2020/12/05 11:03:41;;;;;;;16.48;11.48;;;3.20;99.90;;;;;;5074467;28;20028;-78
2020/12/05 11:06:07;;;;;;;13.45;8.45;;;3.30;99.90;;;;;;5074363;28;20107;-78
2020/12/05 11:08:34;;;;;;;14.68;7.78;;;3.20;99.90;;;;;;5074415;28;20031;-78
2020/12/05 11:10:59;;;;;;;14.80;9.30;;;3.20;99.90;;;;;;5072811;28;20058;-78
2020/12/05 11:13:25;;;;;;;11.27;7.78;;;3.20;99.90;;;;;;5074024;28;20028;-78
2020/12/05 11:15:51;;;;;;;12.20;7.93;;;3.20;99.90;;;;;;5073710;28;20399;-78
2020/12/05 11:18:16;;;;;;;13.57;6.82;;;3.30;99.90;;;;;;5074236;28;20021;-78
2020/12/05 11:20:43;;;;;;;11.60;6.32;;;3.30;99.90;;;;;;5072954;28;20492;-78
2020/12/05 11:23:08;;;;;;;12.70;7.95;;;3.30;99.90;;;;;;5072630;28;20039;-78
2020/12/05 11:25:34;;;;;;;22.27;9.60;;;3.30;99.90;;;;;;5072476;28;20047;-78
2020/12/05 11:28:00;;;;;;;23.25;11.20;;;3.30;99.90;;;;;;5072500;28;20028;-77
2020/12/05 11:30:26;;;;;;;17.33;10.43;;;3.30;99.90;;;;;;5072981;28;20078;-78
2020/12/05 11:32:51;;;;;;;16.75;9.95;;;3.20;99.90;;;;;;5073686;28;20024;-78
2020/12/05 11:35:17;;;;;;;16.58;11.00;;;3.20;99.90;;;;;;5072465;28;20085;-78
2020/12/05 11:37:43;;;;;;;12.23;7.93;;;3.30;99.90;;;;;;5072367;28;20027;-78
2020/12/05 11:40:10;;;;;;;13.32;8.20;;;3.30;99.90;;;;;;5073979;28;20145;-78
2020/12/05 11:42:36;;;;;;;25.85;14.77;;;3.20;99.90;;;;;;5073392;28;20154;-78
2020/12/05 11:45:03;;;;;;;23.48;14.70;;;3.30;99.90;;;;;;5072347;28;20054;-78
2020/12/05 11:47:29;;;;;;;20.23;10.85;;;3.40;99.90;;;;;;5073578;28;20095;-78
2020/12/05 11:49:55;;;;;;;14.13;10.07;;;3.40;99.90;;;;;;5073816;28;20476;-78
2020/12/05 11:52:21;;;;;;;15.23;9.48;;;3.40;99.90;;;;;;5072224;28;20500;-78
2020/12/05 11:54:46;;;;;;;27.83;11.20;;;3.40;99.90;;;;;;5072232;28;20384;-78
2020/12/05 11:57:12;;;;;;;17.10;8.73;;;3.40;99.90;;;;;;5073381;28;20032;-78
2020/12/05 11:59:41;;;;;;;15.65;10.43;;;3.40;99.90;;;;;;5072160;28;20430;-78
2020/12/05 12:02:07;;;;;;;10.90;7.80;;;3.40;99.90;;;;;;5072158;28;20028;-78
2020/12/05 12:04:34;;;;;;;11.65;8.52;;;3.40;99.90;;;;;;5073437;28;20096;-78
2020/12/05 12:07:00;;;;;;;16.08;10.77;;;3.50;99.90;;;;;;5073635;28;20031;-78
2020/12/05 12:09:26;;;;;;;15.57;9.15;;;3.40;99.90;;;;;;5073388;28;20476;-78
2020/12/05 12:11:51;;;;;;;10.43;6.55;;;3.40;99.90;;;;;;5072027;28;20039;-78
2020/12/05 12:14:17;;;;;;;9.98;6.07;;;3.50;99.90;;;;;;5072024;28;20025;-78
2020/12/05 12:16:42;;;;;;;14.13;8.60;;;3.50;99.90;;;;;;5073065;28;20446;-79
2020/12/05 12:19:08;;;;;;;35.90;18.13;;;3.50;99.90;;;;;;5073197;28;20384;-78
2020/12/05 12:21:34;;;;;;;16.20;9.40;;;3.50;99.90;;;;;;5071948;28;20028;-78
2020/12/05 12:23:59;;;;;;;20.30;12.05;;;3.50;99.90;;;;;;5071911;28;20025;-78
2020/12/05 12:26:29;;;;;;;16.25;9.95;;;3.50;99.90;;;;;;5073427;28;20055;-79
2020/12/05 12:28:55;;;;;;;23.65;13.75;;;3.50;99.90;;;;;;5073136;28;20104;-78
2020/12/05 12:31:21;;;;;;;15.07;9.15;;;3.60;99.90;;;;;;5071832;28;20059;-79
2020/12/05 12:33:47;;;;;;;19.10;11.48;;;3.60;99.90;;;;;;5073126;28;20020;-79
2020/12/05 12:36:16;;;;;;;20.52;11.00;;;3.70;99.90;;;;;;5071706;28;20418;-78
2020/12/05 12:38:42;;;;;;;25.58;14.60;;;3.60;99.90;;;;;;5073080;28;20029;-78
2020/12/05 12:41:08;;;;;;;21.40;11.32;;;3.50;99.90;;;;;;5071766;28;20039;-78
2020/12/05 12:43:33;;;;;;;21.17;11.35;;;3.50;99.90;;;;;;5071771;28;20025;-78
2020/12/05 12:46:00;;;;;;;22.23;9.85;;;3.50;99.90;;;;;;5071614;28;20503;-78
2020/12/05 12:50:52;;;;;;;16.60;10.07;;;3.40;99.90;;;;;;5072918;28;20518;-78
2020/12/05 12:53:17;;;;;;;17.60;9.70;;;3.50;99.90;;;;;;5072203;28;20384;-79
2020/12/05 12:55:47;;;;;;;16.23;9.07;;;3.40;99.90;;;;;;5076543;28;20147;-78
2020/12/05 13:00:39;;;;;;;13.27;9.35;;;3.40;99.90;;;;;;5076531;28;20150;-78